createdAt,value
2019-03-23T00:02:00.368Z,78.43
2019-03-23T00:04:28.914Z,78.47
2019-03-23T00:06:57.562Z,78.57
2019-03-23T00:09:26.194Z,78.40
2019-03-23T00:11:54.678Z,78.27
2019-03-23T00:14:23.236Z,78.28
2019-03-23T00:16:51.708Z,78.36
2019-03-23T00:19:20.218Z,78.36
2019-03-23T00:21:48.811Z,78.52
2019-03-23T00:24:17.334Z,78.85
2019-03-23T00:26:45.931Z,78.51
2019-03-23T00:29:14.454Z,78.35
2019-03-23T00:31:42.962Z,78.28
2019-03-23T00:34:11.456Z,78.24
2019-03-23T00:36:41.847Z,78.30
2019-03-23T00:39:10.221Z,78.21
2019-03-23T00:41:38.812Z,78.23
2019-03-23T00:44:07.611Z,78.20
2019-03-23T00:46:36.043Z,78.18
2019-03-23T00:49:04.753Z,78.04
2019-03-23T00:51:33.306Z,78.00
2019-03-23T00:54:01.933Z,78.02
2019-03-23T00:56:30.400Z,77.91
2019-03-23T00:58:58.986Z,78.15
2019-03-23T01:01:29.154Z,78.21
2019-03-23T01:03:57.646Z,78.24
2019-03-23T01:06:26.240Z,78.35
2019-03-23T01:08:55.898Z,78.36
2019-03-23T01:11:24.599Z,78.35
2019-03-23T01:13:53.183Z,78.15
2019-03-23T01:16:21.705Z,78.44
2019-03-23T01:18:50.244Z,78.29
2019-03-23T01:21:18.746Z,78.20
2019-03-23T01:23:47.352Z,78.07
2019-03-23T01:26:15.941Z,77.96
2019-03-23T01:28:44.522Z,78.00
2019-03-23T01:31:13.543Z,78.01
2019-03-23T01:33:42.065Z,78.72
2019-03-23T01:36:12.070Z,78.67
2019-03-23T01:38:40.556Z,78.73
2019-03-23T01:41:09.057Z,78.08
2019-03-23T01:43:37.602Z,77.93
2019-03-23T01:46:06.103Z,78.06
2019-03-23T01:48:34.570Z,78.93
2019-03-23T01:51:03.077Z,78.89
2019-03-23T01:53:31.595Z,79.78
2019-03-23T01:56:00.419Z,79.57
2019-03-23T01:58:28.901Z,80.25
2019-03-23T02:01:00.215Z,79.29
2019-03-23T02:03:28.679Z,79.24
2019-03-23T02:05:57.201Z,79.87
2019-03-23T02:08:25.697Z,79.16
2019-03-23T02:10:54.176Z,78.44
2019-03-23T02:13:22.682Z,77.99
2019-03-23T02:15:51.184Z,77.47
2019-03-23T02:18:22.672Z,77.55
2019-03-23T02:20:51.345Z,77.26
2019-03-23T02:23:19.837Z,77.06
2019-03-23T02:25:48.327Z,76.86
2019-03-23T02:28:16.817Z,76.86
2019-03-23T02:30:45.332Z,76.93
2019-03-23T02:33:13.863Z,77.06
2019-03-23T02:35:42.497Z,77.18
2019-03-23T02:38:10.963Z,77.25
2019-03-23T02:40:39.445Z,77.10
2019-03-23T02:43:08.023Z,77.21
2019-03-23T02:45:41.482Z,77.79
2019-03-23T02:48:09.961Z,78.50
2019-03-23T02:50:38.485Z,79.07
2019-03-23T02:53:06.968Z,80.11
2019-03-23T02:55:35.576Z,80.51
2019-03-23T02:58:04.140Z,80.99
2019-03-23T03:00:32.613Z,81.62
2019-03-23T03:03:01.236Z,82.77
2019-03-23T03:05:29.770Z,82.54
2019-03-23T03:07:58.261Z,84.43
2019-03-23T03:10:42.298Z,84.82
2019-03-23T03:13:10.981Z,83.66
2019-03-23T03:15:39.729Z,85.06
2019-03-23T03:18:08.459Z,85.26
2019-03-23T03:20:36.968Z,84.88
2019-03-23T03:23:07.242Z,85.29
2019-03-23T03:25:38.805Z,85.11
2019-03-23T03:28:07.339Z,84.96
2019-03-23T03:30:35.835Z,84.89
2019-03-23T03:35:36.849Z,84.12
2019-03-23T03:38:05.658Z,83.96
2019-03-23T03:40:34.388Z,83.95
2019-03-23T03:43:02.870Z,83.54
2019-03-23T03:45:31.462Z,83.32
2019-03-23T03:47:59.948Z,83.03
2019-03-23T03:50:28.595Z,82.79
2019-03-23T03:52:57.179Z,82.57
2019-03-23T03:55:25.754Z,82.31
2019-03-23T03:57:54.240Z,82.20
2019-03-23T04:00:22.899Z,82.04
2019-03-23T04:02:51.397Z,81.87
2019-03-23T04:05:20.043Z,81.54
2019-03-23T04:07:48.691Z,81.13
2019-03-23T04:10:17.289Z,81.34
2019-03-23T04:12:45.813Z,81.20
2019-03-23T04:15:14.645Z,80.98
2019-03-23T04:17:43.300Z,81.07
2019-03-23T04:20:12.641Z,80.85
2019-03-23T04:22:41.220Z,80.77
2019-03-23T04:25:11.133Z,80.72
2019-03-23T04:27:39.678Z,80.97
2019-03-23T04:30:10.738Z,80.66
2019-03-23T04:32:39.320Z,80.35
2019-03-23T04:35:08.988Z,80.18
2019-03-23T04:37:37.579Z,80.10
2019-03-23T04:40:09.385Z,79.95
2019-03-23T04:42:38.333Z,80.02
2019-03-23T04:45:09.202Z,79.96
2019-03-23T04:47:37.820Z,79.84
2019-03-23T04:50:11.329Z,79.95
2019-03-23T04:52:40.072Z,80.05
2019-03-23T04:55:12.961Z,80.29
2019-03-23T04:57:41.611Z,80.02
2019-03-23T05:00:16.053Z,79.88
2019-03-23T05:02:44.602Z,79.83
2019-03-23T05:05:13.438Z,79.95
2019-03-23T05:07:41.934Z,80.03
2019-03-23T05:10:11.871Z,80.60
2019-03-23T05:12:40.535Z,80.24
2019-03-23T05:15:09.517Z,79.94
2019-03-23T05:17:38.016Z,79.89
2019-03-23T05:20:09.437Z,80.09
2019-03-23T05:22:37.983Z,80.24
2019-03-23T05:25:08.501Z,80.36
2019-03-23T05:27:36.981Z,79.89
2019-03-23T05:30:08.086Z,80.04
2019-03-23T05:32:36.693Z,80.03
2019-03-23T05:35:07.835Z,80.18
2019-03-23T05:37:37.887Z,80.00
2019-03-23T05:40:08.760Z,80.18
2019-03-23T05:42:37.283Z,79.92
2019-03-23T05:45:09.170Z,79.88
2019-03-23T05:47:37.813Z,79.49
2019-03-23T05:50:08.051Z,79.53
2019-03-23T05:52:36.601Z,79.59
2019-03-23T05:55:06.449Z,79.55
2019-03-23T05:57:34.997Z,79.64
2019-03-23T06:00:05.078Z,79.76
2019-03-23T06:02:33.561Z,79.73
2019-03-23T06:05:02.203Z,79.80
2019-03-23T06:07:30.715Z,79.90
2019-03-23T06:09:59.180Z,79.92
2019-03-23T06:12:27.661Z,79.64
2019-03-23T06:14:56.252Z,79.69
2019-03-23T06:17:24.799Z,79.57
2019-03-23T06:19:53.272Z,79.57
2019-03-23T06:22:21.875Z,79.50
2019-03-23T06:24:50.367Z,79.54
2019-03-23T06:27:18.832Z,79.62
2019-03-23T06:29:47.315Z,79.26
2019-03-23T06:32:15.810Z,79.30
2019-03-23T06:34:44.301Z,79.20
2019-03-23T06:37:12.844Z,79.51
2019-03-23T06:39:41.330Z,79.25
2019-03-23T06:42:09.881Z,79.30
2019-03-23T06:44:38.357Z,79.21
2019-03-23T06:47:06.867Z,79.29
2019-03-23T06:49:35.365Z,79.13
2019-03-23T06:52:04.055Z,79.23
2019-03-23T06:54:32.776Z,79.15
2019-03-23T06:57:01.277Z,78.96
2019-03-23T06:59:29.852Z,79.30
2019-03-23T07:01:58.330Z,79.18
2019-03-23T07:04:26.981Z,79.14
2019-03-23T07:06:55.478Z,79.03
2019-03-23T07:09:24.164Z,79.11
2019-03-23T07:11:52.616Z,78.97
2019-03-23T07:14:21.118Z,78.86
2019-03-23T07:16:49.592Z,78.74
2019-03-23T07:19:18.095Z,78.90
2019-03-23T07:21:46.584Z,78.68
2019-03-23T07:24:15.291Z,78.56
2019-03-23T07:26:44.000Z,78.39
2019-03-23T07:29:12.728Z,78.05
2019-03-23T07:31:41.432Z,78.16
2019-03-23T07:34:09.971Z,78.15
2019-03-23T07:36:38.494Z,78.07
2019-03-23T07:39:07.607Z,78.04
2019-03-23T07:41:36.211Z,77.84
2019-03-23T07:44:04.877Z,77.96
2019-03-23T07:46:33.342Z,77.92
2019-03-23T07:49:01.942Z,77.67
2019-03-23T07:51:30.436Z,77.77
2019-03-23T07:53:59.024Z,77.65
2019-03-23T07:56:27.503Z,77.67
2019-03-23T07:58:55.978Z,77.68
2019-03-23T08:01:24.526Z,77.54
2019-03-23T08:03:53.010Z,77.30
2019-03-23T08:06:23.012Z,77.23
2019-03-23T08:08:51.526Z,76.75
2019-03-23T08:11:20.218Z,76.96
2019-03-23T08:13:48.797Z,76.90
2019-03-23T08:16:17.299Z,76.47
2019-03-23T08:18:45.769Z,76.71
2019-03-23T08:21:15.752Z,76.66
2019-03-23T08:23:44.251Z,76.74
2019-03-23T08:26:12.860Z,76.31
2019-03-23T08:28:41.411Z,76.51
2019-03-23T08:31:13.721Z,76.56
2019-03-23T08:33:42.649Z,76.58
2019-03-23T08:36:11.489Z,76.34
2019-03-23T08:38:40.011Z,76.50
2019-03-23T08:41:08.466Z,76.29
2019-03-23T08:43:38.824Z,76.90
2019-03-23T08:46:07.388Z,77.16
2019-03-23T08:48:40.048Z,77.35
2019-03-23T08:51:08.616Z,77.16
2019-03-23T08:53:37.159Z,77.00
2019-03-23T08:56:08.414Z,77.25
2019-03-23T08:58:36.029Z,77.42
2019-03-23T09:01:10.499Z,77.49
2019-03-23T09:03:51.995Z,77.33
2019-03-23T09:06:15.752Z,77.44
2019-03-23T09:08:44.477Z,77.55
2019-03-23T09:11:20.480Z,77.30
2019-03-23T09:13:43.293Z,76.91
2019-03-23T09:16:12.823Z,76.33
2019-03-23T09:18:41.477Z,76.79
2019-03-23T09:21:09.942Z,76.40
2019-03-23T09:23:39.439Z,75.64
2019-03-23T09:26:09.932Z,75.72
2019-03-23T09:28:38.491Z,75.66
2019-03-23T09:31:07.147Z,76.05
2019-03-23T09:33:35.710Z,75.75
2019-03-23T09:36:04.173Z,75.54
2019-03-23T09:38:32.673Z,75.29
2019-03-23T09:41:01.154Z,75.35
2019-03-23T09:43:30.626Z,75.35
2019-03-23T09:45:59.216Z,75.45
2019-03-23T09:48:28.227Z,75.39
2019-03-23T09:50:56.767Z,75.68
2019-03-23T09:53:25.244Z,75.79
2019-03-23T09:55:53.729Z,75.58
2019-03-23T09:58:22.219Z,75.31
2019-03-23T10:00:51.278Z,75.28
2019-03-23T10:03:19.766Z,75.21
2019-03-23T10:05:49.948Z,75.06
2019-03-23T10:08:20.095Z,74.66
2019-03-23T10:10:50.252Z,74.76
2019-03-23T10:13:18.728Z,74.47
2019-03-23T10:15:48.958Z,74.12
2019-03-23T10:18:17.432Z,73.65
2019-03-23T10:20:45.920Z,73.99
2019-03-23T10:23:15.928Z,73.86
2019-03-23T10:25:44.408Z,73.76
2019-03-23T10:28:12.936Z,73.82
2019-03-23T10:30:41.396Z,73.49
2019-03-23T10:33:09.890Z,72.95
2019-03-23T10:35:38.368Z,73.26
2019-03-23T10:38:06.971Z,73.60
2019-03-23T10:40:35.456Z,73.11
2019-03-23T10:43:04.004Z,73.15
2019-03-23T10:45:43.665Z,73.08
2019-03-23T10:48:02.801Z,72.94
2019-03-23T10:50:31.422Z,72.55
2019-03-23T10:53:01.622Z,72.71
2019-03-23T10:55:30.207Z,72.96
2019-03-23T10:57:58.679Z,73.01
2019-03-23T11:00:27.464Z,72.86
2019-03-23T11:02:56.062Z,72.75
2019-03-23T11:05:24.664Z,72.48
2019-03-23T11:07:59.364Z,72.53
2019-03-23T11:10:29.496Z,72.73
2019-03-23T11:12:58.008Z,72.30
2019-03-23T11:15:26.547Z,72.46
2019-03-23T11:17:55.526Z,72.35
2019-03-23T11:20:27.645Z,72.55
2019-03-23T11:22:56.164Z,72.48
2019-03-23T11:25:27.420Z,72.60
2019-03-23T11:27:55.906Z,72.51
2019-03-23T11:30:26.150Z,72.39
2019-03-23T11:32:54.936Z,72.47
2019-03-23T11:35:25.094Z,72.27
2019-03-23T11:37:53.785Z,72.38
2019-03-23T11:40:28.631Z,73.02
2019-03-23T11:42:56.433Z,72.74
2019-03-23T11:45:26.687Z,71.86
2019-03-23T11:47:56.844Z,71.98
2019-03-23T11:50:25.362Z,71.74
2019-03-23T11:52:54.418Z,71.86
2019-03-23T11:55:23.011Z,71.03
2019-03-23T11:57:51.574Z,70.69
2019-03-23T12:00:20.286Z,70.49
2019-03-23T12:02:48.811Z,71.57
2019-03-23T12:05:17.390Z,71.13
2019-03-23T12:07:45.882Z,71.41
2019-03-23T12:10:14.756Z,71.65
2019-03-23T12:12:43.377Z,71.14
2019-03-23T12:15:59.705Z,71.26
2019-03-23T12:18:29.126Z,71.17
2019-03-23T12:20:57.603Z,71.29
2019-03-23T12:23:26.093Z,71.04
2019-03-23T12:25:54.561Z,71.07
2019-03-23T12:28:23.050Z,71.23
2019-03-23T12:30:51.575Z,71.07
2019-03-23T12:33:21.483Z,71.34
2019-03-23T12:35:50.189Z,71.60
2019-03-23T12:38:20.643Z,71.68
2019-03-23T12:40:49.113Z,71.86
2019-03-23T12:43:17.617Z,71.76
2019-03-23T12:45:49.450Z,71.84
2019-03-23T12:48:18.061Z,72.00
2019-03-23T12:50:46.598Z,72.15
2019-03-23T12:53:15.198Z,72.23
2019-03-23T12:55:43.718Z,72.65
2019-03-23T12:58:12.224Z,72.79
2019-03-23T13:00:40.781Z,73.24
2019-03-23T13:03:09.661Z,73.55
2019-03-23T13:05:45.219Z,73.75
2019-03-23T13:08:13.795Z,74.10
2019-03-23T13:10:50.225Z,74.79
2019-03-23T13:13:23.508Z,74.84
2019-03-23T13:15:52.021Z,75.03
2019-03-23T13:18:35.923Z,74.89
2019-03-23T13:21:03.278Z,74.66
2019-03-23T13:23:31.783Z,74.30
2019-03-23T13:26:00.262Z,74.17
2019-03-23T13:28:28.741Z,74.16
2019-03-23T13:30:57.225Z,73.82
2019-03-23T13:33:28.759Z,73.49
2019-03-23T13:35:57.254Z,72.76
2019-03-23T13:38:25.715Z,72.13
2019-03-23T13:40:54.214Z,70.84
2019-03-23T13:43:24.299Z,70.42
2019-03-23T13:45:52.796Z,70.02
2019-03-23T13:48:21.354Z,69.41
2019-03-23T13:50:49.890Z,69.36
2019-03-23T13:53:18.422Z,68.62
2019-03-23T13:55:46.923Z,69.07
2019-03-23T13:58:15.627Z,68.66
2019-03-23T14:00:44.347Z,68.67
2019-03-23T14:03:12.915Z,68.08
2019-03-23T14:05:41.469Z,68.17
2019-03-23T14:08:10.198Z,68.21
2019-03-23T14:10:39.012Z,68.47
2019-03-23T14:13:07.476Z,67.46
2019-03-23T14:15:38.782Z,67.16
2019-03-23T14:18:09.912Z,67.42
2019-03-23T14:20:40.176Z,65.64
2019-03-23T14:23:08.765Z,66.52
2019-03-23T14:25:39.768Z,65.13
2019-03-23T14:28:08.679Z,65.08
2019-03-23T14:30:37.146Z,64.20
2019-03-23T14:33:05.638Z,63.07
2019-03-23T14:36:04.455Z,62.07
2019-03-23T14:38:04.328Z,62.42
2019-03-23T14:40:35.815Z,62.23
2019-03-23T14:43:09.740Z,60.74
2019-03-23T14:45:42.464Z,60.69
2019-03-23T14:48:15.156Z,60.21
2019-03-23T14:50:45.988Z,59.41
2019-03-23T14:53:14.487Z,59.62
2019-03-23T14:55:42.950Z,57.70
2019-03-23T14:58:11.431Z,57.84
2019-03-23T15:00:39.913Z,56.92
2019-03-23T15:03:11.338Z,57.44
2019-03-23T15:05:39.806Z,57.67
2019-03-23T15:08:08.369Z,57.57
2019-03-23T15:10:36.853Z,56.88
2019-03-23T15:13:05.410Z,54.81
2019-03-23T15:15:33.959Z,56.40
2019-03-23T15:18:02.456Z,55.27
2019-03-23T15:20:31.040Z,54.72
2019-03-23T15:22:59.530Z,54.09
2019-03-23T15:25:28.092Z,54.16
2019-03-23T15:27:56.556Z,53.41
2019-03-23T15:30:28.572Z,53.00
2019-03-23T15:32:57.049Z,51.50
2019-03-23T15:35:27.616Z,52.40
2019-03-23T15:37:56.100Z,52.85
2019-03-23T15:40:26.197Z,52.43
2019-03-23T15:42:56.371Z,52.35
2019-03-23T15:45:25.068Z,51.10
2019-03-23T15:47:53.647Z,50.01
2019-03-23T15:50:26.591Z,51.28
2019-03-23T15:53:01.166Z,50.67
2019-03-23T15:55:26.345Z,51.68
2019-03-23T15:57:56.902Z,51.66
2019-03-23T16:00:32.919Z,51.75
2019-03-23T16:03:01.399Z,50.05
2019-03-23T16:05:30.381Z,52.38
2019-03-23T16:07:58.869Z,52.56
2019-03-23T16:10:27.511Z,53.19
2019-03-23T16:12:56.007Z,53.74
2019-03-23T16:15:27.293Z,53.33
2019-03-23T16:17:57.455Z,54.15
2019-03-23T16:20:26.387Z,54.28
2019-03-23T16:22:54.923Z,54.61
2019-03-23T16:25:24.937Z,54.82
2019-03-23T16:27:56.557Z,56.13
2019-03-23T16:30:32.321Z,55.87
2019-03-23T16:33:05.998Z,55.97
2019-03-23T16:35:34.619Z,56.36
2019-03-23T16:38:03.327Z,56.05
2019-03-23T16:40:31.865Z,56.01
2019-03-23T16:43:00.432Z,56.54
2019-03-23T16:45:29.221Z,56.17
2019-03-23T16:47:57.799Z,55.51
2019-03-23T16:50:26.357Z,55.35
2019-03-23T16:52:57.645Z,55.64
2019-03-23T16:55:44.139Z,56.13
2019-03-23T16:58:17.038Z,56.63
2019-03-23T17:00:47.530Z,56.85
2019-03-23T17:03:16.442Z,56.33
2019-03-23T17:05:44.898Z,56.92
2019-03-23T17:08:15.708Z,57.61
2019-03-23T17:10:44.566Z,57.91
2019-03-23T17:13:18.669Z,58.42
2019-03-23T17:15:47.209Z,58.88
2019-03-23T17:18:15.700Z,59.13
2019-03-23T17:20:45.909Z,60.04
2019-03-23T17:23:17.480Z,60.03
2019-03-23T17:25:45.994Z,59.95
2019-03-23T17:28:14.510Z,60.12
2019-03-23T17:30:43.013Z,59.98
2019-03-23T17:33:11.583Z,60.46
2019-03-23T17:35:40.014Z,60.12
2019-03-23T17:38:08.518Z,60.33
2019-03-23T17:40:36.992Z,60.12
2019-03-23T17:43:09.847Z,60.38
2019-03-23T17:45:38.316Z,60.47
2019-03-23T17:48:06.870Z,60.23
2019-03-23T17:50:35.427Z,60.59
2019-03-23T17:53:04.052Z,60.99
2019-03-23T17:55:32.641Z,61.99
2019-03-23T17:58:08.260Z,62.01
2019-03-23T18:00:40.246Z,62.36
2019-03-23T18:03:11.822Z,62.35
2019-03-23T18:05:42.582Z,62.49
2019-03-23T18:08:11.148Z,62.68
2019-03-23T18:10:39.717Z,62.99
2019-03-23T18:13:16.468Z,63.22
2019-03-23T18:15:40.500Z,63.53
2019-03-23T18:18:09.039Z,63.51
2019-03-23T18:20:37.524Z,63.67
2019-03-23T18:23:06.132Z,64.25
2019-03-23T18:25:41.233Z,65.58
2019-03-23T18:28:11.259Z,65.02
2019-03-23T18:30:41.773Z,64.81
2019-03-23T18:33:10.422Z,64.69
2019-03-23T18:35:38.989Z,64.89
2019-03-23T18:38:08.014Z,64.97
2019-03-23T18:40:36.945Z,64.88
2019-03-23T18:43:05.639Z,65.00
2019-03-23T18:45:37.486Z,65.41
2019-03-23T18:48:06.139Z,65.50
2019-03-23T18:50:34.651Z,65.72
2019-03-23T18:53:03.297Z,65.73
2019-03-23T18:55:31.867Z,66.02
2019-03-23T18:58:00.557Z,65.90
2019-03-23T19:00:40.146Z,65.92
2019-03-23T19:03:08.880Z,65.94
2019-03-23T19:05:37.479Z,66.23
2019-03-23T19:08:06.536Z,66.43
2019-03-23T19:10:38.814Z,66.48
2019-03-23T19:13:07.459Z,66.87
2019-03-23T19:15:37.776Z,66.63
2019-03-23T19:18:07.216Z,66.61
2019-03-23T19:20:36.026Z,66.87
2019-03-23T19:23:07.753Z,66.99
2019-03-23T19:25:36.556Z,67.05
2019-03-23T19:28:10.144Z,67.10
2019-03-23T19:30:39.027Z,67.45
2019-03-23T19:33:07.910Z,67.22
2019-03-23T19:35:46.491Z,67.14
2019-03-23T19:38:14.977Z,67.42
2019-03-23T19:40:43.596Z,67.62
2019-03-23T19:43:12.146Z,67.52
2019-03-23T19:45:40.757Z,67.49
2019-03-23T19:48:09.333Z,67.64
2019-03-23T19:50:37.833Z,67.55
2019-03-23T19:53:06.446Z,67.91
2019-03-23T19:55:34.967Z,67.77
2019-03-23T19:58:03.499Z,68.30
2019-03-23T20:00:32.002Z,68.09
2019-03-23T20:03:00.501Z,68.22
2019-03-23T20:05:28.999Z,68.17
2019-03-23T20:07:57.573Z,68.25
2019-03-23T20:10:26.128Z,68.20
2019-03-23T20:12:54.611Z,68.33
2019-03-23T20:15:23.186Z,68.23
2019-03-23T20:17:51.838Z,68.04
2019-03-23T20:20:20.917Z,68.06
2019-03-23T20:22:49.425Z,68.22
2019-03-23T20:25:18.071Z,68.04
2019-03-23T20:27:46.571Z,67.94
2019-03-23T20:30:16.089Z,68.03
2019-03-23T20:32:44.619Z,67.81
2019-03-23T20:35:13.424Z,67.87
2019-03-23T20:37:41.914Z,67.69
2019-03-23T20:40:13.209Z,67.81
2019-03-23T20:42:41.095Z,67.99
2019-03-23T20:45:10.748Z,68.09
2019-03-23T20:47:41.340Z,68.21
2019-03-23T20:50:10.724Z,68.58
2019-03-23T20:52:43.404Z,68.46
2019-03-23T20:55:14.995Z,68.54
2019-03-23T20:57:43.459Z,68.57
2019-03-23T21:00:12.182Z,68.85
2019-03-23T21:02:40.642Z,68.87
2019-03-23T21:05:09.354Z,69.02
2019-03-23T21:07:40.480Z,69.09
2019-03-23T21:10:09.172Z,69.24
2019-03-23T21:12:37.705Z,69.08
2019-03-23T21:15:07.011Z,69.39
2019-03-23T21:17:35.727Z,69.59
2019-03-23T21:20:06.278Z,69.44
2019-03-23T21:22:34.856Z,69.34
2019-03-23T21:25:03.929Z,69.31
2019-03-23T21:27:32.416Z,69.57
2019-03-23T21:30:00.901Z,69.43
2019-03-23T21:32:29.401Z,69.31
2019-03-23T21:34:57.875Z,69.21
2019-03-23T21:37:26.413Z,69.84
2019-03-23T21:39:56.638Z,69.79
2019-03-23T21:42:25.132Z,69.71
2019-03-23T21:44:53.601Z,69.67
2019-03-23T21:47:24.442Z,69.66
2019-03-23T21:49:54.557Z,69.57
2019-03-23T21:52:23.055Z,69.84
2019-03-23T21:54:51.640Z,69.97
2019-03-23T21:57:20.341Z,70.02
2019-03-23T21:59:51.158Z,69.92
2019-03-23T22:02:20.756Z,70.07
2019-03-23T22:04:52.014Z,70.07
2019-03-23T22:07:20.528Z,70.42
2019-03-23T22:09:49.090Z,70.06
2019-03-23T22:12:19.112Z,69.96
2019-03-23T22:14:47.696Z,70.05
2019-03-23T22:17:16.195Z,70.11
2019-03-23T22:19:44.684Z,70.11
2019-03-23T22:22:16.118Z,70.24
2019-03-23T22:24:45.926Z,70.44
2019-03-23T22:27:15.945Z,70.47
2019-03-23T22:29:44.432Z,70.76
2019-03-23T22:32:12.973Z,70.52
2019-03-23T22:34:41.815Z,70.55
2019-03-23T22:37:10.388Z,70.71
2019-03-23T22:39:38.870Z,70.43
2019-03-23T22:42:07.356Z,70.70
2019-03-23T22:44:37.578Z,70.67
2019-03-23T22:47:06.072Z,70.75
2019-03-23T22:49:34.544Z,70.55
2019-03-23T22:52:03.030Z,70.46
2019-03-23T22:54:31.496Z,70.74
2019-03-23T22:57:01.493Z,70.52
2019-03-23T22:59:29.987Z,70.55
2019-03-23T23:01:58.548Z,70.51
2019-03-23T23:04:29.579Z,70.53
2019-03-23T23:06:58.048Z,70.49
2019-03-23T23:09:26.541Z,70.60
2019-03-23T23:11:55.000Z,70.51
2019-03-23T23:14:23.473Z,70.51
2019-03-23T23:16:51.975Z,70.52
2019-03-23T23:19:20.479Z,70.50
2019-03-23T23:21:48.958Z,70.60
2019-03-23T23:24:17.534Z,70.65
2019-03-23T23:26:46.036Z,70.68
2019-03-23T23:29:14.511Z,70.76
2019-03-23T23:31:44.555Z,70.70
2019-03-23T23:34:13.111Z,70.78
2019-03-23T23:36:41.633Z,70.82
2019-03-23T23:39:10.273Z,70.74
2019-03-23T23:41:40.567Z,71.09
2019-03-23T23:44:09.093Z,70.96
2019-03-23T23:46:37.581Z,71.10
2019-03-23T23:49:07.609Z,71.23
2019-03-23T23:51:49.601Z,71.18
2019-03-23T23:57:09.852Z,71.12
2019-03-23T23:59:42.725Z,71.10
